createdAt,value
2017-05-11T00:00:02.481Z,8.38
2017-05-11T00:00:06.686Z,8.38
2017-05-11T00:00:10.997Z,8.39
2017-05-11T00:00:15.425Z,8.38
2017-05-11T00:00:19.868Z,8.39
2017-05-11T00:00:24.180Z,8.38
2017-05-11T00:00:28.605Z,8.38
2017-05-11T00:00:32.922Z,8.39
2017-05-11T00:00:37.353Z,8.38
2017-05-11T00:00:41.542Z,8.38
2017-05-11T00:00:45.968Z,8.39
2017-05-11T00:00:50.276Z,8.38
2017-05-11T00:00:54.481Z,8.37
2017-05-11T00:00:58.907Z,8.38
2017-05-11T00:01:03.692Z,8.38
2017-05-11T00:01:08.162Z,8.38
2017-05-11T00:01:12.591Z,8.38
2017-05-11T00:01:17.018Z,8.38
2017-05-11T00:01:21.449Z,8.38
2017-05-11T00:01:25.874Z,8.38
2017-05-11T00:01:30.297Z,8.37
2017-05-11T00:01:34.603Z,8.38
2017-05-11T00:01:39.038Z,8.37
2017-05-11T00:01:43.463Z,8.37
2017-05-11T00:01:47.892Z,8.38
2017-05-11T00:01:52.320Z,8.38
2017-05-11T00:01:56.792Z,8.36
2017-05-11T00:02:01.220Z,8.38
2017-05-11T00:02:05.412Z,8.38
2017-05-11T00:02:09.718Z,8.37
2017-05-11T00:02:14.151Z,8.37
2017-05-11T00:02:18.581Z,8.37
2017-05-11T00:02:23.005Z,8.37
2017-05-11T00:02:27.312Z,8.37
2017-05-11T00:02:31.512Z,8.36
2017-05-11T00:02:35.984Z,8.37
2017-05-11T00:02:40.415Z,8.37
2017-05-11T00:02:44.852Z,8.36
2017-05-11T00:02:49.163Z,8.37
2017-05-11T00:02:53.598Z,8.37
2017-05-11T00:02:58.039Z,8.36
2017-05-11T00:03:02.615Z,8.36
2017-05-11T00:03:07.040Z,8.35
2017-05-11T00:03:11.475Z,8.35
2017-05-11T00:03:15.962Z,8.35
2017-05-11T00:03:20.396Z,8.36
2017-05-11T00:03:24.481Z,8.35
2017-05-11T00:03:28.916Z,8.35
2017-05-11T00:03:33.356Z,8.34
2017-05-11T00:03:37.788Z,8.34
2017-05-11T00:03:42.222Z,8.34
2017-05-11T00:03:46.651Z,8.34
2017-05-11T00:03:50.973Z,8.33
2017-05-11T00:03:55.284Z,8.34
2017-05-11T00:03:59.714Z,8.34
2017-05-11T00:04:04.443Z,8.34
2017-05-11T00:04:08.879Z,8.33
2017-05-11T00:04:13.311Z,8.34
2017-05-11T00:04:17.738Z,8.33
2017-05-11T00:04:22.053Z,8.32
2017-05-11T00:04:26.422Z,8.33
2017-05-11T00:04:30.850Z,8.32
2017-05-11T00:04:35.280Z,8.32
2017-05-11T00:04:39.710Z,8.31
2017-05-11T00:04:44.149Z,8.32
2017-05-11T00:04:48.455Z,8.32
2017-05-11T00:04:52.884Z,8.31
2017-05-11T00:04:57.310Z,8.32
2017-05-11T00:05:01.756Z,8.31
2017-05-11T00:05:06.162Z,8.3
2017-05-11T00:05:10.586Z,8.3
2017-05-11T00:05:15.013Z,8.3
2017-05-11T00:05:19.446Z,8.3
2017-05-11T00:05:23.639Z,8.29
2017-05-11T00:05:27.945Z,8.3
2017-05-11T00:05:32.375Z,8.29
2017-05-11T00:05:36.855Z,8.28
2017-05-11T00:05:41.288Z,8.28
2017-05-11T00:05:45.711Z,8.29
2017-05-11T00:05:50.042Z,8.27
2017-05-11T00:05:54.468Z,8.28
2017-05-11T00:05:58.896Z,8.27
2017-05-11T00:06:03.212Z,8.27
2017-05-11T00:06:07.529Z,8.27
2017-05-11T00:06:11.838Z,8.27
2017-05-11T00:06:16.266Z,8.26
2017-05-11T00:06:20.577Z,8.25
2017-05-11T00:06:25.002Z,8.27
2017-05-11T00:06:29.305Z,8.26
2017-05-11T00:06:33.733Z,8.26
2017-05-11T00:06:38.164Z,8.25
2017-05-11T00:06:42.599Z,8.25
2017-05-11T00:06:47.027Z,8.25
2017-05-11T00:06:51.492Z,8.25
2017-05-11T00:06:55.924Z,8.24
2017-05-11T00:07:00.348Z,8.23
2017-05-11T00:07:04.661Z,8.24
2017-05-11T00:07:09.088Z,8.23
2017-05-11T00:07:13.522Z,8.23
2017-05-11T00:07:17.710Z,8.23
2017-05-11T00:07:22.026Z,8.23
2017-05-11T00:07:26.471Z,8.22
2017-05-11T00:07:30.901Z,8.22
2017-05-11T00:07:35.328Z,8.21
2017-05-11T00:07:39.765Z,8.21
2017-05-11T00:07:44.203Z,8.21
2017-05-11T00:07:48.515Z,8.21
2017-05-11T00:07:52.947Z,8.2
2017-05-11T00:07:57.376Z,8.21
2017-05-11T00:08:02.067Z,8.2
2017-05-11T00:08:06.497Z,8.2
2017-05-11T00:08:10.686Z,8.19
2017-05-11T00:08:15.116Z,8.18
2017-05-11T00:08:19.551Z,8.19
2017-05-11T00:08:23.986Z,8.19
2017-05-11T00:08:28.298Z,8.18
2017-05-11T00:08:32.733Z,8.18
2017-05-11T00:08:37.163Z,8.18
2017-05-11T00:08:41.590Z,8.17
2017-05-11T00:08:46.022Z,8.17
2017-05-11T00:08:50.340Z,8.17
2017-05-11T00:08:54.589Z,8.16
2017-05-11T00:08:59.020Z,8.17
2017-05-11T00:09:03.449Z,8.16
2017-05-11T00:09:07.761Z,8.16
2017-05-11T00:09:12.079Z,8.16
2017-05-11T00:09:16.511Z,8.15
2017-05-11T00:09:20.954Z,8.15
2017-05-11T00:09:25.384Z,8.16
2017-05-11T00:09:29.694Z,8.15
2017-05-11T00:09:34.118Z,8.15
2017-05-11T00:09:38.559Z,8.15
2017-05-11T00:09:42.995Z,8.15
2017-05-11T00:09:47.423Z,8.14
2017-05-11T00:09:51.848Z,8.14
2017-05-11T00:09:55.929Z,8.13
2017-05-11T00:10:00.360Z,8.13
2017-05-11T00:10:04.796Z,8.13
2017-05-11T00:10:08.988Z,8.13
2017-05-11T00:10:13.458Z,8.12
2017-05-11T00:10:17.889Z,8.12
2017-05-11T00:10:22.319Z,8.12
2017-05-11T00:10:26.747Z,8.12
2017-05-11T00:10:31.177Z,8.12
2017-05-11T00:10:35.604Z,8.12
2017-05-11T00:10:40.030Z,8.11
2017-05-11T00:10:44.458Z,8.11
2017-05-11T00:10:48.897Z,8.11
2017-05-11T00:10:53.354Z,8.11
2017-05-11T00:10:57.782Z,8.12
2017-05-11T00:11:01.974Z,8.1
2017-05-11T00:11:06.407Z,8.11
2017-05-11T00:11:10.879Z,8.1
2017-05-11T00:11:15.305Z,8.11
2017-05-11T00:11:19.730Z,8.1
2017-05-11T00:11:24.043Z,8.09
2017-05-11T00:11:28.354Z,8.09
2017-05-11T00:11:32.779Z,8.11
2017-05-11T00:11:37.090Z,8.1
2017-05-11T00:11:41.532Z,8.1
2017-05-11T00:11:46.005Z,8.09
2017-05-11T00:11:50.437Z,8.09
2017-05-11T00:11:54.631Z,8.09
2017-05-11T00:11:59.060Z,8.08
2017-05-11T00:12:03.745Z,8.09
2017-05-11T00:12:08.170Z,8.08
2017-05-11T00:12:12.607Z,8.08
2017-05-11T00:12:17.040Z,8.09
2017-05-11T00:12:21.467Z,8.08
2017-05-11T00:12:25.895Z,8.07
2017-05-11T00:12:30.367Z,8.08
2017-05-11T00:12:34.565Z,8.07
2017-05-11T00:12:39.004Z,8.07
2017-05-11T00:12:43.437Z,8.07
2017-05-11T00:12:47.867Z,8.07
2017-05-11T00:12:52.311Z,8.06
2017-05-11T00:12:56.741Z,8.07
2017-05-11T00:13:01.169Z,8.07
2017-05-11T00:13:05.746Z,8.06
2017-05-11T00:13:10.190Z,8.06
2017-05-11T00:13:14.623Z,8.06
2017-05-11T00:13:19.054Z,8.06
2017-05-11T00:13:23.487Z,8.06
2017-05-11T00:13:27.922Z,8.05
2017-05-11T00:13:32.383Z,8.06
2017-05-11T00:13:36.813Z,8.05
2017-05-11T00:13:41.127Z,8.05
2017-05-11T00:13:45.585Z,8.05
2017-05-11T00:13:50.012Z,8.05
2017-05-11T00:13:54.329Z,8.04
2017-05-11T00:13:58.757Z,8.05
2017-05-11T00:14:03.435Z,8.05
2017-05-11T00:14:07.747Z,8.05
2017-05-11T00:14:12.066Z,8.05
2017-05-11T00:14:16.549Z,8.05
2017-05-11T00:14:20.985Z,8.04
2017-05-11T00:14:25.418Z,8.04
2017-05-11T00:14:29.772Z,8.03
2017-05-11T00:14:34.079Z,8.04
2017-05-11T00:14:38.265Z,8.04
2017-05-11T00:14:42.575Z,8.04
2017-05-11T00:14:46.893Z,8.04
2017-05-11T00:14:51.324Z,8.03
2017-05-11T00:14:55.748Z,8.04
2017-05-11T00:15:00.186Z,8.03
2017-05-11T00:15:04.503Z,8.04
2017-05-11T00:15:08.928Z,8.03
2017-05-11T00:15:13.359Z,8.04
2017-05-11T00:15:17.796Z,8.04
2017-05-11T00:15:22.259Z,8.04
2017-05-11T00:15:26.578Z,8.04
2017-05-11T00:15:31.001Z,8.04
2017-05-11T00:15:35.308Z,8.04
2017-05-11T00:15:39.738Z,8.04
2017-05-11T00:15:44.172Z,8.04
2017-05-11T00:15:48.597Z,8.04
2017-05-11T00:15:52.909Z,8.04
2017-05-11T00:15:57.254Z,8.04
2017-05-11T00:16:01.676Z,8.04
2017-05-11T00:16:06.203Z,8.04
2017-05-11T00:16:10.396Z,8.04
2017-05-11T00:16:14.817Z,8.04
2017-05-11T00:16:19.245Z,8.04
2017-05-11T00:16:23.674Z,8.04
2017-05-11T00:16:27.989Z,8.04
2017-05-11T00:16:32.427Z,8.04
2017-05-11T00:16:36.858Z,8.04
2017-05-11T00:16:41.281Z,8.04
2017-05-11T00:16:45.713Z,8.04
2017-05-11T00:16:50.140Z,8.05
2017-05-11T00:16:54.456Z,8.05
2017-05-11T00:16:58.919Z,8.05
2017-05-11T00:17:03.554Z,8.05
2017-05-11T00:17:07.985Z,8.04
2017-05-11T00:17:12.296Z,8.05
2017-05-11T00:17:16.728Z,8.05
2017-05-11T00:17:20.929Z,8.04
2017-05-11T00:17:25.242Z,8.05
2017-05-11T00:17:29.672Z,8.05
2017-05-11T00:17:34.101Z,8.05
2017-05-11T00:17:38.545Z,8.05
2017-05-11T00:17:43.024Z,8.05
2017-05-11T00:17:47.447Z,8.04
2017-05-11T00:17:51.871Z,8.04
2017-05-11T00:17:56.304Z,8.04
2017-05-11T00:18:00.729Z,8.04
2017-05-11T00:18:05.410Z,8.05
2017-05-11T00:18:09.840Z,8.05
2017-05-11T00:18:14.160Z,8.05
2017-05-11T00:18:18.585Z,8.05
2017-05-11T00:18:22.899Z,8.05
2017-05-11T00:18:27.361Z,8.05
2017-05-11T00:18:31.792Z,8.05
2017-05-11T00:18:36.219Z,8.05
2017-05-11T00:18:40.536Z,8.05
2017-05-11T00:18:45.022Z,8.05
2017-05-11T00:18:49.449Z,8.06
2017-05-11T00:18:53.780Z,8.06
2017-05-11T00:18:58.214Z,8.05
2017-05-11T00:19:02.686Z,8.05
2017-05-11T00:19:06.755Z,8.05
2017-05-11T00:19:11.179Z,8.05
2017-05-11T00:19:15.621Z,8.05
2017-05-11T00:19:20.071Z,8.06
2017-05-11T00:19:24.507Z,8.05
2017-05-11T00:19:28.934Z,8.06
2017-05-11T00:19:33.359Z,8.05
2017-05-11T00:19:37.677Z,8.05
2017-05-11T00:19:42.107Z,8.05
2017-05-11T00:19:46.418Z,8.05
2017-05-11T00:19:50.844Z,8.05
2017-05-11T00:19:55.280Z,8.05
2017-05-11T00:19:59.703Z,8.05
2017-05-11T00:20:04.195Z,8.06
2017-05-11T00:20:08.388Z,8.06
2017-05-11T00:20:12.859Z,8.06
2017-05-11T00:20:17.283Z,8.06
2017-05-11T00:20:21.710Z,8.06
2017-05-11T00:20:26.144Z,8.06
2017-05-11T00:20:30.577Z,8.05
2017-05-11T00:20:34.996Z,8.06
2017-05-11T00:20:39.313Z,8.06
2017-05-11T00:20:43.754Z,8.06
2017-05-11T00:20:48.184Z,8.05
2017-05-11T00:20:52.518Z,8.06
2017-05-11T00:20:56.948Z,8.06
2017-05-11T00:21:01.377Z,8.06
2017-05-11T00:21:05.800Z,8.06
2017-05-11T00:21:10.118Z,8.07
2017-05-11T00:21:14.579Z,8.05
2017-05-11T00:21:19.009Z,8.06
2017-05-11T00:21:23.436Z,8.06
2017-05-11T00:21:27.870Z,8.06
2017-05-11T00:21:32.307Z,8.06
2017-05-11T00:21:36.733Z,8.06
2017-05-11T00:21:41.159Z,8.06
2017-05-11T00:21:45.355Z,8.07
2017-05-11T00:21:49.665Z,8.08
2017-05-11T00:21:53.864Z,8.07
2017-05-11T00:21:58.289Z,8.07
2017-05-11T00:22:02.718Z,8.07
2017-05-11T00:22:07.143Z,8.08
2017-05-11T00:22:11.570Z,8.07
2017-05-11T00:22:15.883Z,8.08
2017-05-11T00:22:20.336Z,8.07
2017-05-11T00:22:24.764Z,8.07
2017-05-11T00:22:29.068Z,8.07
2017-05-11T00:22:33.500Z,8.08
2017-05-11T00:22:37.705Z,8.08
2017-05-11T00:22:42.131Z,8.08
2017-05-11T00:22:46.555Z,8.08
2017-05-11T00:22:50.983Z,8.08
2017-05-11T00:22:55.300Z,8.08
2017-05-11T00:22:59.653Z,8.08
2017-05-11T00:23:04.080Z,8.08
2017-05-11T00:23:08.396Z,8.07
2017-05-11T00:23:12.831Z,8.07
2017-05-11T00:23:17.312Z,8.08
2017-05-11T00:23:21.750Z,8.08
2017-05-11T00:23:26.182Z,8.08
2017-05-11T00:23:30.494Z,8.08
2017-05-11T00:23:34.927Z,8.08
2017-05-11T00:23:39.114Z,8.07
2017-05-11T00:23:43.566Z,8.08
2017-05-11T00:23:48.005Z,8.08
2017-05-11T00:23:52.310Z,8.08
2017-05-11T00:23:56.748Z,8.08
2017-05-11T00:24:01.229Z,8.09
2017-05-11T00:24:05.656Z,8.08
2017-05-11T00:24:09.965Z,8.07
2017-05-11T00:24:14.395Z,8.08
2017-05-11T00:24:18.823Z,8.08
2017-05-11T00:24:23.154Z,8.09
2017-05-11T00:24:27.585Z,8.07
2017-05-11T00:24:31.896Z,8.09
2017-05-11T00:24:36.363Z,8.09
2017-05-11T00:24:40.795Z,8.08
2017-05-11T00:24:45.228Z,8.08
2017-05-11T00:24:49.700Z,8.09
2017-05-11T00:24:54.131Z,8.08
2017-05-11T00:24:58.568Z,8.09
2017-05-11T00:25:03.278Z,8.09
2017-05-11T00:25:07.703Z,8.09
2017-05-11T00:25:12.135Z,8.09
2017-05-11T00:25:16.566Z,8.09
2017-05-11T00:25:20.999Z,8.08
2017-05-11T00:25:25.424Z,8.08
2017-05-11T00:25:29.850Z,8.08
2017-05-11T00:25:34.156Z,8.08
2017-05-11T00:25:38.592Z,8.09
2017-05-11T00:25:42.908Z,8.09
2017-05-11T00:25:47.332Z,8.08
2017-05-11T00:25:51.756Z,8.09
2017-05-11T00:25:56.062Z,8.08
2017-05-11T00:26:00.495Z,8.08
2017-05-11T00:26:05.118Z,8.09
2017-05-11T00:26:09.191Z,8.08
2017-05-11T00:26:13.619Z,8.09
2017-05-11T00:26:18.048Z,8.08
2017-05-11T00:26:22.358Z,8.08
2017-05-11T00:26:26.669Z,8.08
2017-05-11T00:26:31.094Z,8.07
2017-05-11T00:26:35.519Z,8.08
2017-05-11T00:26:39.945Z,8.08
2017-05-11T00:26:44.376Z,8.09
2017-05-11T00:26:48.812Z,8.07
2017-05-11T00:26:53.238Z,8.07
2017-05-11T00:26:57.667Z,8.08
2017-05-11T00:27:02.097Z,8.08
2017-05-11T00:27:06.405Z,8.07
2017-05-11T00:27:10.832Z,8.08
2017-05-11T00:27:15.023Z,8.07
2017-05-11T00:27:19.455Z,8.07
2017-05-11T00:27:23.763Z,8.07
2017-05-11T00:27:28.185Z,8.07
2017-05-11T00:27:32.613Z,8.07
2017-05-11T00:27:37.060Z,8.06
2017-05-11T00:27:41.492Z,8.07
2017-05-11T00:27:45.808Z,8.07
2017-05-11T00:27:50.234Z,8.07
2017-05-11T00:27:54.545Z,8.06
2017-05-11T00:27:58.976Z,8.06
2017-05-11T00:28:03.587Z,8.07
2017-05-11T00:28:07.662Z,8.06
2017-05-11T00:28:11.973Z,8.05
2017-05-11T00:28:16.409Z,8.06
2017-05-11T00:28:20.843Z,8.06
2017-05-11T00:28:25.279Z,8.06
2017-05-11T00:28:29.718Z,8.05
2017-05-11T00:28:34.151Z,8.06
2017-05-11T00:28:38.584Z,8.06
2017-05-11T00:28:43.008Z,8.06
2017-05-11T00:28:47.441Z,8.06
2017-05-11T00:28:51.878Z,8.05
2017-05-11T00:28:56.073Z,8.05
2017-05-11T00:29:00.269Z,8.05
2017-05-11T00:29:04.961Z,8.05
2017-05-11T00:29:09.167Z,8.05
2017-05-11T00:29:13.598Z,8.04
2017-05-11T00:29:18.031Z,8.05
2017-05-11T00:29:22.354Z,8.05
2017-05-11T00:29:26.830Z,8.05
2017-05-11T00:29:31.137Z,8.05
2017-05-11T00:29:35.572Z,8.04
2017-05-11T00:29:39.995Z,8.05
2017-05-11T00:29:44.429Z,8.05
2017-05-11T00:29:48.896Z,8.05
2017-05-11T00:29:52.968Z,8.05
2017-05-11T00:29:57.277Z,8.04
2017-05-11T00:30:01.600Z,8.05
2017-05-11T00:30:05.799Z,8.05
2017-05-11T00:30:10.102Z,8.05
2017-05-11T00:30:14.529Z,8.04
2017-05-11T00:30:18.966Z,8.04
2017-05-11T00:30:23.277Z,8.04
2017-05-11T00:30:27.703Z,8.04
2017-05-11T00:30:32.141Z,8.05
2017-05-11T00:30:36.610Z,8.05
2017-05-11T00:30:41.040Z,8.04
2017-05-11T00:30:45.349Z,8.05
2017-05-11T00:30:49.820Z,8.05
2017-05-11T00:30:54.247Z,8.04
2017-05-11T00:30:58.676Z,8.05
2017-05-11T00:31:03.122Z,8.05
2017-05-11T00:31:07.550Z,8.05
2017-05-11T00:31:11.869Z,8.05
2017-05-11T00:31:16.359Z,8.05
2017-05-11T00:31:20.791Z,8.05
2017-05-11T00:31:25.266Z,8.05
2017-05-11T00:31:29.579Z,8.06
2017-05-11T00:31:33.887Z,8.05
2017-05-11T00:31:38.313Z,8.06
2017-05-11T00:31:42.748Z,8.05
2017-05-11T00:31:46.942Z,8.05
2017-05-11T00:31:51.251Z,8.05
2017-05-11T00:31:55.565Z,8.05
2017-05-11T00:31:59.881Z,8.05
2017-05-11T00:32:04.192Z,8.05
2017-05-11T00:32:08.622Z,8.05
2017-05-11T00:32:12.831Z,8.04
2017-05-11T00:32:17.257Z,8.05
2017-05-11T00:32:21.688Z,8.05
2017-05-11T00:32:26.128Z,8.05
2017-05-11T00:32:30.564Z,8.05
2017-05-11T00:32:34.997Z,8.05
2017-05-11T00:32:39.432Z,8.05
2017-05-11T00:32:43.868Z,8.05
2017-05-11T00:32:48.356Z,8.05
2017-05-11T00:32:52.670Z,8.05
2017-05-11T00:32:56.985Z,8.05
2017-05-11T00:33:01.425Z,8.05
2017-05-11T00:33:05.866Z,8.05
2017-05-11T00:33:10.185Z,8.05
2017-05-11T00:33:14.611Z,8.05
2017-05-11T00:33:19.032Z,8.05
2017-05-11T00:33:23.352Z,8.05
2017-05-11T00:33:27.792Z,8.05
2017-05-11T00:33:32.101Z,8.05
2017-05-11T00:33:36.417Z,8.05
2017-05-11T00:33:40.852Z,8.05
2017-05-11T00:33:45.293Z,8.04
2017-05-11T00:33:49.606Z,8.05
2017-05-11T00:33:53.681Z,8.05
2017-05-11T00:33:57.995Z,8.04
2017-05-11T00:34:02.519Z,8.05
2017-05-11T00:34:06.827Z,8.05
2017-05-11T00:34:11.270Z,8.04
2017-05-11T00:34:15.582Z,8.04
2017-05-11T00:34:20.065Z,8.04
2017-05-11T00:34:24.252Z,8.04
2017-05-11T00:34:28.684Z,8.04
2017-05-11T00:34:32.996Z,8.05
2017-05-11T00:34:37.355Z,8.04
2017-05-11T00:34:41.783Z,8.05
2017-05-11T00:34:46.095Z,8.04
2017-05-11T00:34:50.408Z,8.04
2017-05-11T00:34:54.756Z,8.04
2017-05-11T00:34:59.227Z,8.04
2017-05-11T00:35:03.535Z,8.04
2017-05-11T00:35:07.964Z,8.04
2017-05-11T00:35:12.304Z,8.03
2017-05-11T00:35:16.615Z,8.03
2017-05-11T00:35:20.929Z,8.04
2017-05-11T00:35:25.355Z,8.04
2017-05-11T00:35:29.793Z,8.03
2017-05-11T00:35:34.260Z,8.04
2017-05-11T00:35:38.684Z,8.03
2017-05-11T00:35:43.117Z,8.03
2017-05-11T00:35:47.548Z,8.03
2017-05-11T00:35:52.011Z,8.03
2017-05-11T00:35:56.320Z,8.03
2017-05-11T00:36:00.746Z,8.03
2017-05-11T00:36:05.527Z,8.03
2017-05-11T00:36:09.873Z,8.03
2017-05-11T00:36:14.299Z,8.03
2017-05-11T00:36:18.725Z,8.03
2017-05-11T00:36:23.161Z,8.03
2017-05-11T00:36:27.587Z,8.03
2017-05-11T00:36:32.019Z,8.03
2017-05-11T00:36:36.452Z,8.03
2017-05-11T00:36:40.944Z,8.02
2017-05-11T00:36:45.134Z,8.02
2017-05-11T00:36:49.445Z,8.04
2017-05-11T00:36:53.773Z,8.03
2017-05-11T00:36:58.197Z,8.03
2017-05-11T00:37:02.785Z,8.03
2017-05-11T00:37:07.094Z,8.04
2017-05-11T00:37:11.410Z,8.04
2017-05-11T00:37:15.840Z,8.03
2017-05-11T00:37:20.268Z,8.03
2017-05-11T00:37:24.470Z,8.03
2017-05-11T00:37:28.904Z,8.04
2017-05-11T00:37:33.334Z,8.04
2017-05-11T00:37:37.778Z,8.04
2017-05-11T00:37:42.221Z,8.04
2017-05-11T00:37:46.651Z,8.03
2017-05-11T00:37:50.968Z,8.03
2017-05-11T00:37:55.320Z,8.03
2017-05-11T00:37:59.628Z,8.04
2017-05-11T00:38:04.106Z,8.03
2017-05-11T00:38:08.415Z,8.03
2017-05-11T00:38:12.733Z,8.03
2017-05-11T00:38:17.161Z,8.04
2017-05-11T00:38:21.604Z,8.03
2017-05-11T00:38:26.036Z,8.03
2017-05-11T00:38:30.469Z,8.03
2017-05-11T00:38:34.902Z,8.03
2017-05-11T00:38:39.329Z,8.04
2017-05-11T00:38:43.756Z,8.03
2017-05-11T00:38:48.191Z,8.03
2017-05-11T00:38:52.500Z,8.04
2017-05-11T00:38:56.819Z,8.04
2017-05-11T00:39:01.251Z,8.03
2017-05-11T00:39:05.880Z,8.03
2017-05-11T00:39:10.316Z,8.03
2017-05-11T00:39:14.744Z,8.03
2017-05-11T00:39:19.190Z,8.03
2017-05-11T00:39:23.504Z,8.02
2017-05-11T00:39:27.939Z,8.02
2017-05-11T00:39:32.371Z,8.03
2017-05-11T00:39:36.833Z,8.02
2017-05-11T00:39:41.259Z,8.02
2017-05-11T00:39:45.689Z,8.02
2017-05-11T00:39:50.010Z,8.02
2017-05-11T00:39:54.447Z,8.02
2017-05-11T00:39:59.181Z,8.02
2017-05-11T00:40:03.619Z,8.02
2017-05-11T00:40:07.935Z,8.02
2017-05-11T00:40:12.283Z,8.02
2017-05-11T00:40:16.705Z,8.01
2017-05-11T00:40:21.139Z,8.02
2017-05-11T00:40:25.559Z,8.01
2017-05-11T00:40:29.987Z,8.02
2017-05-11T00:40:34.417Z,8.02
2017-05-11T00:40:38.850Z,8.02
2017-05-11T00:40:43.281Z,8.02
2017-05-11T00:40:47.711Z,8.02
2017-05-11T00:40:51.908Z,8.02
2017-05-11T00:40:56.221Z,8.01
2017-05-11T00:41:00.645Z,8.01
2017-05-11T00:41:05.069Z,8.02
2017-05-11T00:41:09.493Z,8.01
2017-05-11T00:41:13.930Z,8.01
2017-05-11T00:41:18.244Z,8.01
2017-05-11T00:41:22.553Z,8.01
2017-05-11T00:41:26.862Z,8.01
2017-05-11T00:41:31.297Z,8.02
2017-05-11T00:41:35.723Z,8.02
2017-05-11T00:41:39.918Z,8.02
2017-05-11T00:41:44.343Z,8.02
2017-05-11T00:41:48.774Z,8.02
2017-05-11T00:41:53.082Z,8.02
2017-05-11T00:41:57.508Z,8.01
2017-05-11T00:42:01.815Z,8.01
2017-05-11T00:42:06.136Z,8.01
2017-05-11T00:42:10.327Z,8.01
2017-05-11T00:42:14.639Z,8.02
2017-05-11T00:42:19.063Z,8.02
2017-05-11T00:42:23.302Z,8.03
2017-05-11T00:42:27.734Z,8.02
2017-05-11T00:42:32.161Z,8.02
2017-05-11T00:42:36.477Z,8.02
2017-05-11T00:42:40.908Z,8.02
2017-05-11T00:42:45.258Z,8.02
2017-05-11T00:42:49.690Z,8.02
2017-05-11T00:42:54.007Z,8.03
2017-05-11T00:42:58.451Z,8.03
2017-05-11T00:43:02.863Z,8.02
2017-05-11T00:43:07.300Z,8.02
2017-05-11T00:43:11.615Z,8.03
2017-05-11T00:43:16.044Z,8.03
2017-05-11T00:43:20.479Z,8.03
2017-05-11T00:43:24.799Z,8.02
2017-05-11T00:43:29.228Z,8.03
2017-05-11T00:43:33.535Z,8.03
2017-05-11T00:43:37.965Z,8.02
2017-05-11T00:43:42.399Z,8.03
2017-05-11T00:43:46.748Z,8.03
2017-05-11T00:43:51.057Z,8.03
2017-05-11T00:43:55.249Z,8.03
2017-05-11T00:43:59.680Z,8.03
2017-05-11T00:44:04.409Z,8.03
2017-05-11T00:44:08.840Z,8.03
2017-05-11T00:44:13.159Z,8.03
2017-05-11T00:44:17.602Z,8.04
2017-05-11T00:44:21.838Z,8.04
2017-05-11T00:44:26.264Z,8.04
2017-05-11T00:44:30.688Z,8.03
2017-05-11T00:44:35.119Z,8.03
2017-05-11T00:44:39.551Z,8.04
2017-05-11T00:44:43.870Z,8.03
2017-05-11T00:44:48.300Z,8.04
2017-05-11T00:44:52.491Z,8.04
2017-05-11T00:44:56.847Z,8.04
2017-05-11T00:45:01.278Z,8.04
2017-05-11T00:45:05.640Z,8.05
2017-05-11T00:45:09.942Z,8.04
2017-05-11T00:45:14.383Z,8.03
2017-05-11T00:45:18.808Z,8.04
2017-05-11T00:45:23.236Z,8.04
2017-05-11T00:45:27.550Z,8.05
2017-05-11T00:45:31.864Z,8.04
2017-05-11T00:45:36.295Z,8.04
2017-05-11T00:45:40.722Z,8.04
2017-05-11T00:45:45.160Z,8.04
2017-05-11T00:45:49.587Z,8.04
2017-05-11T00:45:53.896Z,8.04
2017-05-11T00:45:58.204Z,8.03
2017-05-11T00:46:02.641Z,8.04
2017-05-11T00:46:06.953Z,8.03
2017-05-11T00:46:11.390Z,8.04
2017-05-11T00:46:15.814Z,8.04
2017-05-11T00:46:20.244Z,8.04
2017-05-11T00:46:24.686Z,8.03
2017-05-11T00:46:29.112Z,8.03
2017-05-11T00:46:33.537Z,8.03
2017-05-11T00:46:38.011Z,8.03
2017-05-11T00:46:42.434Z,8.03
2017-05-11T00:46:46.747Z,8.02
2017-05-11T00:46:51.171Z,8.04
2017-05-11T00:46:55.365Z,8.04
2017-05-11T00:46:59.795Z,8.03
2017-05-11T00:47:04.227Z,8.03
2017-05-11T00:47:08.422Z,8.03
2017-05-11T00:47:12.862Z,8.03
2017-05-11T00:47:17.292Z,8.03
2017-05-11T00:47:21.722Z,8.03
2017-05-11T00:47:25.917Z,8.04
2017-05-11T00:47:30.349Z,8.03
2017-05-11T00:47:34.660Z,8.03
2017-05-11T00:47:39.097Z,8.02
2017-05-11T00:47:43.521Z,8.03
2017-05-11T00:47:47.851Z,8.02
2017-05-11T00:47:52.282Z,8.02
2017-05-11T00:47:56.597Z,8.03
2017-05-11T00:48:00.788Z,8.02
2017-05-11T00:48:05.519Z,8.02
2017-05-11T00:48:09.832Z,8.02
2017-05-11T00:48:14.260Z,8.02
2017-05-11T00:48:18.694Z,8.02
2017-05-11T00:48:23.021Z,8.01
2017-05-11T00:48:27.453Z,8.02
2017-05-11T00:48:31.774Z,8.02
2017-05-11T00:48:36.216Z,8.02
2017-05-11T00:48:40.653Z,8.02
2017-05-11T00:48:45.080Z,8.02
2017-05-11T00:48:49.511Z,8.01
2017-05-11T00:48:53.830Z,8.02
2017-05-11T00:48:58.265Z,8.01
2017-05-11T00:49:02.692Z,8.01
2017-05-11T00:49:07.000Z,8.02
2017-05-11T00:49:11.435Z,8.01
2017-05-11T00:49:15.867Z,8.01
2017-05-11T00:49:20.309Z,8.01
2017-05-11T00:49:24.741Z,8.01
2017-05-11T00:49:29.175Z,8
2017-05-11T00:49:33.602Z,8.01
2017-05-11T00:49:38.033Z,8
2017-05-11T00:49:42.467Z,8.01
2017-05-11T00:49:46.542Z,8
2017-05-11T00:49:50.971Z,8.01
2017-05-11T00:49:55.049Z,8.01
2017-05-11T00:49:59.474Z,8.01
2017-05-11T00:50:03.998Z,8
2017-05-11T00:50:08.424Z,8
2017-05-11T00:50:12.738Z,8
2017-05-11T00:50:17.164Z,8
2017-05-11T00:50:21.473Z,7.99
2017-05-11T00:50:25.899Z,7.99
2017-05-11T00:50:30.332Z,7.99
2017-05-11T00:50:34.758Z,7.99
2017-05-11T00:50:39.189Z,8
2017-05-11T00:50:43.620Z,7.99
2017-05-11T00:50:48.050Z,7.99
2017-05-11T00:50:52.484Z,7.99
2017-05-11T00:50:56.677Z,7.99
2017-05-11T00:51:01.140Z,7.99
2017-05-11T00:51:05.569Z,7.98
2017-05-11T00:51:09.996Z,7.98
2017-05-11T00:51:14.430Z,7.99
2017-05-11T00:51:18.854Z,7.98
2017-05-11T00:51:23.282Z,7.98
2017-05-11T00:51:27.707Z,7.97
2017-05-11T00:51:32.132Z,7.98
2017-05-11T00:51:36.454Z,7.97
2017-05-11T00:51:40.877Z,7.97
2017-05-11T00:51:45.305Z,7.97
2017-05-11T00:51:49.727Z,7.96
2017-05-11T00:51:53.925Z,7.96
2017-05-11T00:51:58.355Z,7.96
2017-05-11T00:52:02.978Z,7.96
2017-05-11T00:52:07.308Z,7.97
2017-05-11T00:52:11.628Z,7.95
2017-05-11T00:52:15.939Z,7.95
2017-05-11T00:52:20.378Z,7.95
2017-05-11T00:52:24.713Z,7.95
2017-05-11T00:52:29.021Z,7.94
2017-05-11T00:52:33.331Z,7.96
2017-05-11T00:52:37.764Z,7.94
2017-05-11T00:52:42.187Z,7.94
2017-05-11T00:52:46.616Z,7.95
2017-05-11T00:52:51.048Z,7.94
2017-05-11T00:52:55.366Z,7.94
2017-05-11T00:52:59.799Z,7.93
2017-05-11T00:53:04.210Z,7.94
2017-05-11T00:53:08.522Z,7.94
2017-05-11T00:53:12.843Z,7.93
2017-05-11T00:53:17.308Z,7.92
2017-05-11T00:53:21.505Z,7.93
2017-05-11T00:53:25.968Z,7.93
2017-05-11T00:53:30.404Z,7.93
2017-05-11T00:53:34.723Z,7.93
2017-05-11T00:53:39.148Z,7.92
2017-05-11T00:53:43.587Z,7.92
2017-05-11T00:53:48.021Z,7.92
2017-05-11T00:53:52.337Z,7.93
2017-05-11T00:53:56.648Z,7.93
2017-05-11T00:54:01.090Z,7.92
2017-05-11T00:54:05.614Z,7.92
2017-05-11T00:54:09.806Z,7.92
2017-05-11T00:54:14.240Z,7.92
2017-05-11T00:54:18.555Z,7.91
2017-05-11T00:54:22.754Z,7.92
2017-05-11T00:54:27.184Z,7.92
2017-05-11T00:54:31.496Z,7.92
2017-05-11T00:54:35.812Z,7.92
2017-05-11T00:54:40.241Z,7.93
2017-05-11T00:54:44.547Z,7.91
2017-05-11T00:54:48.975Z,7.92
2017-05-11T00:54:53.296Z,7.92
2017-05-11T00:54:57.736Z,7.91
2017-05-11T00:55:02.166Z,7.92
2017-05-11T00:55:06.478Z,7.92
2017-05-11T00:55:10.557Z,7.91
2017-05-11T00:55:14.881Z,7.91
2017-05-11T00:55:19.307Z,7.92
2017-05-11T00:55:23.619Z,7.91
2017-05-11T00:55:28.044Z,7.92
2017-05-11T00:55:32.475Z,7.91
2017-05-11T00:55:36.901Z,7.91
2017-05-11T00:55:41.325Z,7.91
2017-05-11T00:55:45.751Z,7.9
2017-05-11T00:55:50.200Z,7.9
2017-05-11T00:55:54.426Z,7.9
2017-05-11T00:55:58.858Z,7.9
2017-05-11T00:56:03.288Z,7.9
2017-05-11T00:56:07.493Z,7.9
2017-05-11T00:56:11.689Z,7.9
2017-05-11T00:56:16.116Z,7.9
2017-05-11T00:56:20.590Z,7.9
2017-05-11T00:56:24.900Z,7.9
2017-05-11T00:56:29.327Z,7.89
2017-05-11T00:56:33.767Z,7.89
2017-05-11T00:56:38.191Z,7.9
2017-05-11T00:56:42.618Z,7.89
2017-05-11T00:56:46.933Z,7.89
2017-05-11T00:56:51.356Z,7.89
2017-05-11T00:56:55.547Z,7.89
2017-05-11T00:56:59.984Z,7.89
2017-05-11T00:57:04.459Z,7.89
2017-05-11T00:57:08.651Z,7.89
2017-05-11T00:57:13.008Z,7.88
2017-05-11T00:57:17.438Z,7.88
2017-05-11T00:57:21.863Z,7.88
2017-05-11T00:57:26.291Z,7.88
2017-05-11T00:57:30.607Z,7.88
2017-05-11T00:57:35.033Z,7.87
2017-05-11T00:57:39.465Z,7.88
2017-05-11T00:57:43.782Z,7.86
2017-05-11T00:57:48.220Z,7.87
2017-05-11T00:57:52.660Z,7.86
2017-05-11T00:57:57.091Z,7.86
2017-05-11T00:58:01.826Z,7.86
2017-05-11T00:58:05.897Z,7.86
2017-05-11T00:58:10.214Z,7.85
2017-05-11T00:58:14.639Z,7.85
2017-05-11T00:58:19.066Z,7.84
2017-05-11T00:58:23.500Z,7.85
2017-05-11T00:58:27.928Z,7.85
2017-05-11T00:58:32.238Z,7.85
2017-05-11T00:58:36.662Z,7.85